首页
METAR-TAF:

METAR-TAF

机场 :

仁川國際機場

仁川国际机场, 大韩民国

纬度: 37-28N, 经度: 126-27E, 海拔: 7米

当前天气观测

该预报发布于30分钟前的15:00 UTC
风速7节,风向东转东北
温度 26°C
湿度 37%
气压 1012 hPa
能见度10公里或以上
1500米以下无云,无积雨云

METAR: RKSI 161500Z 07007KT CAVOK 26/10 Q1012 NOSIG

时间: 00:30 (15:30 UTC)

预报

该预报发布于4小时和30分钟前的11:00 UTC
预报有效从16日的 12点(UTC)到 17日的 18点(UTC)
风速8节,风向东转东北
能见度10公里或以上
散云层高于3000英尺
成为
从 17日的 00点(UTC)到 17日的 01点(UTC)
风速15节,风向东转东北,有时为25节阵风
短暂存在
从 17日的 02点(UTC)到 17日的 09点(UTC)
风速8节,风向
成为
从 17日的 09点(UTC)到 17日的 10点(UTC)
风速8节,风向东转东北

TAF: RKSI 161100Z 1612/1718 07008KT 9999 SCT030 TN22/1621Z TX32/1705Z BECMG 1700/1701 07015G25KT TEMPO 1702/1709 10008KT BECMG 1709/1710 07008KT

超过4000个机场的气象观测和天气预报(METAR&TAF报告)。

可查询的气象台以黄色和红色小点在地图上表示。

将鼠标移到小点上方,可查看气象台名称。

然后点击查看天气观测和预报。

如需切换地图:点击带黑十字的绿色按钮放大地图;点击带横线的绿色按钮缩小地图;或者点击绿色箭头查看邻近地区的地图。


METAR-TAF: